Stolt Dipper — ZCMY3 — position and weather

sailwx.info

Track history (hours):
 
Tides and Currents Weather Stations Pressure Air Temp Water Temp Dewpoint Dewpoint Depression Visibility Wind Speed Wind Dir Waves Ship Positions

Stolt Dipper

Last reported at 2014-Dec-21 18:33 UTC. Time now 2014-Dec-21 18:43 UTC.
Position N 57°30' E 007°59'.

Length 96 m; draft 7.1 m.

Type: Ship (hazmat cat B). MMSI: 319036000.

Date/timePositionNaut miles runAvg speedWind from/ knotsBaromVisibWave heightAir tempDewpointWater temp
2014-Dec-21 18:33N 57°30' E 007°59'314 6.5
2014-Dec-19 18:34N 54°56' W 000°12'1413.6
2014-Dec-19 17:33N 54°50' W 000°34'1514.0
2014-Dec-19 16:30N 54°45' W 000°58'1111.5
2014-Dec-19 15:33N 54°37' W 001°10'0 0.0
2014-Dec-19 14:19N 54°37' W 001°10'0 0.0
2014-Dec-19 13:19N 54°37' W 001°10'0 0.0
2014-Dec-19 12:31N 54°37' W 001°10'0 0.0
2014-Dec-19 11:22N 54°37' W 001°10'0 0.0
2014-Dec-19 10:22N 54°37' W 001°10'0 0.0
2014-Dec-19 09:25N 54°37' W 001°10'1 0.2
2014-Dec-19 06:21N 54°37' W 001°10'5 1.6
2014-Dec-19 03:33N 54°41' W 001°04'1 1.4
2014-Dec-19 02:33N 54°40' W 001°02'0 0.0
2014-Dec-19 01:32N 54°40' W 001°02'0 0.0
2014-Dec-19 00:32N 54°40' W 001°02'0 0.0
2014-Dec-18 23:29N 54°40' W 001°02'0 0.0
2014-Dec-18 22:33N 54°40' W 001°02'0 0.0
2014-Dec-18 21:33N 54°40' W 001°02'0 0.0
2014-Dec-18 20:33N 54°40' W 001°02'5 0.7
2014-Dec-18 13:15N 54°37' W 001°09'0 0.0
2014-Dec-18 12:27N 54°37' W 001°09'0 0.0
2014-Dec-18 11:27N 54°37' W 001°10'0 0.0
2014-Dec-18 10:33N 54°37' W 001°09'0 0.0
2014-Dec-18 09:33N 54°37' W 001°09'1 0.8
2014-Dec-18 08:32N 54°38' W 001°09'10 9.8
2014-Dec-18 07:33N 54°38' W 000°53'1313.4
2014-Dec-18 06:34N 54°34' W 000°31'1413.7
2014-Dec-18 05:33N 54°25' W 000°14'1313.4
2014-Dec-18 04:33N 54°14' E 000°00'1313.0
2014-Dec-18 03:34N 54°04' E 000°14'1312.7
2014-Dec-18 02:33N 53°54' E 000°28'1212.3
2014-Dec-18 01:33N 53°45' E 000°41'3912.9
2014-Dec-17 22:33N 53°13' E 001°18'1414.0
2014-Dec-17 21:33N 53°01' E 001°29'1414.1
2014-Dec-17 20:33N 52°50' E 001°46'1412.9
2014-Dec-17 19:29N 52°44' E 002°06'1111.0
2014-Dec-17 18:31N 52°35' E 002°16'5410.9
2014-Dec-17 13:31N 51°44' E 002°46'1212.2
2014-Dec-17 12:33N 51°44' E 003°05'10 9.8
2014-Dec-17 11:33N 51°40' E 003°19'1313.5
2014-Dec-17 10:34N 51°29' E 003°30'1010.1
2014-Dec-17 09:33N 51°23' E 003°44'9 9.2
2014-Dec-17 08:33N 51°25' E 003°58'8 7.8
2014-Dec-17 07:34N 51°23' E 004°10'5 5.1
2014-Dec-17 06:34N 51°21' E 004°17'2 2.0
2014-Dec-17 05:33N 51°19' E 004°19'0 0.1
2014-Dec-17 04:30N 51°19' E 004°18'0 0.0
2014-Dec-17 03:33N 51°19' E 004°18'0 0.0
2014-Dec-17 02:30N 51°19' E 004°18'0 0.0
2014-Dec-17 01:30N 51°19' E 004°18'0 0.0
2014-Dec-17 00:30N 51°19' E 004°18'0 0.0
2014-Dec-16 23:30N 51°19' E 004°18'0 0.0
2014-Dec-16 22:24N 51°19' E 004°18'0 0.0
2014-Dec-16 21:24N 51°19' E 004°18'0 0.0
2014-Dec-16 20:18N 51°19' E 004°18'0 0.0
2014-Dec-16 18:18N 51°19' E 004°18'1 1.0
2014-Dec-16 17:33N 51°18' E 004°19'3 3.4
2014-Dec-16 16:32N 51°15' E 004°22'0 0.0
2014-Dec-16 15:29N 51°15' E 004°22'0 0.0
2014-Dec-16 14:32N 51°15' E 004°22'0 0.0
2014-Dec-16 13:32N 51°15' E 004°22'0 0.0
2014-Dec-16 12:29N 51°15' E 004°22'0 0.0
2014-Dec-16 11:23N 51°15' E 004°22'0 0.0
2014-Dec-16 10:17N 51°15' E 004°22'0 0.0
2014-Dec-16 09:32N 51°15' E 004°22'0 0.0
2014-Dec-16 08:29N 51°15' E 004°22'0 0.0
2014-Dec-16 07:32N 51°15' E 004°22'0 0.0
2014-Dec-16 06:32N 51°15' E 004°22'0 0.0
2014-Dec-16 05:27N 51°15' E 004°22'0 0.0
2014-Dec-16 04:30N 51°15' E 004°22'0 0.0
2014-Dec-16 03:29N 51°15' E 004°22'0 0.0
2014-Dec-16 02:32N 51°15' E 004°22'0 0.0
2014-Dec-16 01:05N 51°15' E 004°22'0 0.0
2014-Dec-15 23:20N 51°15' E 004°22'0 0.0
2014-Dec-15 22:32N 51°15' E 004°22'0 0.4
2014-Dec-15 21:29N 51°15' E 004°21'0 0.0
2014-Dec-15 20:32N 51°15' E 004°21'0 0.0
2014-Dec-15 19:32N 51°15' E 004°21'0 0.0
2014-Dec-15 18:29N 51°15' E 004°21'0 0.0
2014-Dec-15 17:32N 51°15' E 004°21'0 0.0
2014-Dec-15 16:32N 51°15' E 004°21'0 0.0
2014-Dec-15 15:32N 51°15' E 004°21'0 0.0
2014-Dec-15 14:29N 51°15' E 004°21'0 0.0
2014-Dec-15 13:32N 51°15' E 004°21'0 0.0
2014-Dec-15 12:32N 51°15' E 004°21'0 0.0
2014-Dec-15 11:32N 51°15' E 004°21'0 0.0
2014-Dec-15 10:32N 51°15' E 004°21'0 0.0
2014-Dec-15 09:32N 51°15' E 004°21'0 0.0
2014-Dec-15 08:32N 51°15' E 004°21'0 0.0
2014-Dec-15 07:32N 51°15' E 004°21'0 0.0
2014-Dec-15 06:32N 51°15' E 004°21'0 0.0
2014-Dec-15 05:32N 51°15' E 004°21'0 0.0
2014-Dec-15 04:32N 51°15' E 004°21'0 0.0
2014-Dec-15 03:32N 51°15' E 004°21'0 0.0
2014-Dec-15 02:23N 51°15' E 004°21'0 0.0
2014-Dec-15 01:32N 51°15' E 004°21'0 0.0
2014-Dec-15 00:32N 51°15' E 004°21'0 0.0
2014-Dec-14 23:32N 51°15' E 004°21'0 0.0
2014-Dec-14 22:29N 51°15' E 004°21'0 0.0
2014-Dec-14 21:32N 51°15' E 004°21'0 0.0
2014-Dec-14 20:32N 51°15' E 004°21'0 0.0
2014-Dec-14 19:32N 51°15' E 004°21'0 0.0
2014-Dec-14 18:29N 51°15' E 004°21'0 0.0
2014-Dec-14 17:23N 51°15' E 004°21'0 0.0
2014-Dec-14 16:32N 51°15' E 004°21'0 0.0
2014-Dec-14 15:32N 51°15' E 004°21'0 0.0
2014-Dec-14 14:26N 51°15' E 004°21'0 0.0
2014-Dec-14 13:32N 51°15' E 004°21'0 0.0
2014-Dec-14 12:32N 51°15' E 004°21'0 0.0
2014-Dec-14 11:32N 51°15' E 004°21'0 0.0
2014-Dec-14 10:33N 51°15' E 004°21'2 2.0
2014-Dec-14 09:34N 51°17' E 004°20'2 2.3
2014-Dec-14 08:33N 51°16' E 004°17'1 1.4
2014-Dec-14 07:33N 51°16' E 004°14'1 0.1
2014-Dec-13 19:29N 51°17' E 004°14'0 0.0
2014-Dec-13 05:33N 51°17' E 004°14'2 2.2
2014-Dec-13 04:34N 51°16' E 004°17'0 0.0
2014-Dec-13 03:34N 51°16' E 004°17'2 2.1
2014-Dec-13 02:34N 51°17' E 004°19'7 7.4
2014-Dec-13 01:33N 51°24' E 004°13'9 9.3
2014-Dec-13 00:33N 51°25' E 003°58'10 9.6
2014-Dec-12 23:34N 51°23' E 003°43'8 7.6
2014-Dec-12 22:33N 51°25' E 003°32'1310.6
2014-Dec-12 21:22N 51°24' E 003°11'1011.0
2014-Dec-12 20:27N 51°22' E 002°55'910.2
2014-Dec-12 19:31N 51°22' E 002°40'4 4.2
2014-Dec-12 18:27N 51°20' E 002°34'0 0.0
2014-Dec-12 17:33N 51°20' E 002°34'1 0.5
2014-Dec-12 16:32N 51°21' E 002°35'9 8.7
2014-Dec-12 15:33N 51°20' E 002°21'1111.5
2014-Dec-12 14:33N 51°21' E 002°03'1212.3
2014-Dec-12 13:33N 51°30' E 001°49'1111.5
2014-Dec-12 12:33N 51°26' E 001°31'6 5.7
2014-Dec-12 11:34N 51°25' E 001°22'0 0.2
2014-Dec-12 10:34N 51°25' E 001°23'0 0.0
2014-Dec-12 09:34N 51°25' E 001°23'0 0.0
2014-Dec-12 08:34N 51°25' E 001°23'0 0.0
2014-Dec-12 07:33N 51°25' E 001°23'0 0.0
2014-Dec-12 06:33N 51°25' E 001°23'0 0.0
2014-Dec-12 05:33N 51°25' E 001°23'0 0.0
2014-Dec-12 04:33N 51°25' E 001°23'0 0.0
2014-Dec-12 03:33N 51°25' E 001°23'7 7.3
2014-Dec-12 02:34N 51°24' E 001°34'1212.4
2014-Dec-12 01:33N 51°11' E 001°37'10 9.7
2014-Dec-12 00:33N 51°02' E 001°34'  
Track history (hours):
 
Tides and Currents Weather Stations Pressure Air Temp Water Temp Dewpoint Dewpoint Depression Visibility Wind Speed Wind Dir Waves Ship Positions

Stolt Dipper

Last reported at 2014-Dec-21 18:33 UTC. Time now 2014-Dec-21 18:43 UTC.
Position N 57°30' E 007°59'.

Length 96 m; draft 7.1 m.

Type: Ship (hazmat cat B). MMSI: 319036000.

Date/timePositionNaut miles runAvg speedWind from/ knotsBaromVisibWave heightAir tempDewpointWater temp
2014-Dec-21 18:33N 57°30' E 007°59'314 6.5
2014-Dec-19 18:34N 54°56' W 000°12'1413.6
2014-Dec-19 17:33N 54°50' W 000°34'1514.0
2014-Dec-19 16:30N 54°45' W 000°58'1111.5
2014-Dec-19 15:33N 54°37' W 001°10'0 0.0
2014-Dec-19 14:19N 54°37' W 001°10'0 0.0
2014-Dec-19 13:19N 54°37' W 001°10'0 0.0
2014-Dec-19 12:31N 54°37' W 001°10'0 0.0
2014-Dec-19 11:22N 54°37' W 001°10'0 0.0
2014-Dec-19 10:22N 54°37' W 001°10'0 0.0
2014-Dec-19 09:25N 54°37' W 001°10'1 0.2
2014-Dec-19 06:21N 54°37' W 001°10'5 1.6
2014-Dec-19 03:33N 54°41' W 001°04'1 1.4
2014-Dec-19 02:33N 54°40' W 001°02'0 0.0
2014-Dec-19 01:32N 54°40' W 001°02'0 0.0
2014-Dec-19 00:32N 54°40' W 001°02'0 0.0
2014-Dec-18 23:29N 54°40' W 001°02'0 0.0
2014-Dec-18 22:33N 54°40' W 001°02'0 0.0
2014-Dec-18 21:33N 54°40' W 001°02'0 0.0
2014-Dec-18 20:33N 54°40' W 001°02'5 0.7
2014-Dec-18 13:15N 54°37' W 001°09'0 0.0
2014-Dec-18 12:27N 54°37' W 001°09'0 0.0
2014-Dec-18 11:27N 54°37' W 001°10'0 0.0
2014-Dec-18 10:33N 54°37' W 001°09'0 0.0
2014-Dec-18 09:33N 54°37' W 001°09'1 0.8
2014-Dec-18 08:32N 54°38' W 001°09'10 9.8
2014-Dec-18 07:33N 54°38' W 000°53'1313.4
2014-Dec-18 06:34N 54°34' W 000°31'1413.7
2014-Dec-18 05:33N 54°25' W 000°14'1313.4
2014-Dec-18 04:33N 54°14' E 000°00'1313.0
2014-Dec-18 03:34N 54°04' E 000°14'1312.7
2014-Dec-18 02:33N 53°54' E 000°28'1212.3
2014-Dec-18 01:33N 53°45' E 000°41'3912.9
2014-Dec-17 22:33N 53°13' E 001°18'1414.0
2014-Dec-17 21:33N 53°01' E 001°29'1414.1
2014-Dec-17 20:33N 52°50' E 001°46'1412.9
2014-Dec-17 19:29N 52°44' E 002°06'1111.0
2014-Dec-17 18:31N 52°35' E 002°16'5410.9
2014-Dec-17 13:31N 51°44' E 002°46'1212.2
2014-Dec-17 12:33N 51°44' E 003°05'10 9.8
2014-Dec-17 11:33N 51°40' E 003°19'1313.5
2014-Dec-17 10:34N 51°29' E 003°30'1010.1
2014-Dec-17 09:33N 51°23' E 003°44'9 9.2
2014-Dec-17 08:33N 51°25' E 003°58'8 7.8
2014-Dec-17 07:34N 51°23' E 004°10'5 5.1
2014-Dec-17 06:34N 51°21' E 004°17'2 2.0
2014-Dec-17 05:33N 51°19' E 004°19'0 0.1
2014-Dec-17 04:30N 51°19' E 004°18'0 0.0
2014-Dec-17 03:33N 51°19' E 004°18'0 0.0
2014-Dec-17 02:30N 51°19' E 004°18'0 0.0
2014-Dec-17 01:30N 51°19' E 004°18'0 0.0
2014-Dec-17 00:30N 51°19' E 004°18'0 0.0
2014-Dec-16 23:30N 51°19' E 004°18'0 0.0
2014-Dec-16 22:24N 51°19' E 004°18'0 0.0
2014-Dec-16 21:24N 51°19' E 004°18'0 0.0
2014-Dec-16 20:18N 51°19' E 004°18'0 0.0
2014-Dec-16 18:18N 51°19' E 004°18'1 1.0
2014-Dec-16 17:33N 51°18' E 004°19'3 3.4
2014-Dec-16 16:32N 51°15' E 004°22'0 0.0
2014-Dec-16 15:29N 51°15' E 004°22'0 0.0
2014-Dec-16 14:32N 51°15' E 004°22'0 0.0
2014-Dec-16 13:32N 51°15' E 004°22'0 0.0
2014-Dec-16 12:29N 51°15' E 004°22'0 0.0
2014-Dec-16 11:23N 51°15' E 004°22'0 0.0
2014-Dec-16 10:17N 51°15' E 004°22'0 0.0
2014-Dec-16 09:32N 51°15' E 004°22'0 0.0
2014-Dec-16 08:29N 51°15' E 004°22'0 0.0
2014-Dec-16 07:32N 51°15' E 004°22'0 0.0
2014-Dec-16 06:32N 51°15' E 004°22'0 0.0
2014-Dec-16 05:27N 51°15' E 004°22'0 0.0
2014-Dec-16 04:30N 51°15' E 004°22'0 0.0
2014-Dec-16 03:29N 51°15' E 004°22'0 0.0
2014-Dec-16 02:32N 51°15' E 004°22'0 0.0
2014-Dec-16 01:05N 51°15' E 004°22'0 0.0
2014-Dec-15 23:20N 51°15' E 004°22'0 0.0
2014-Dec-15 22:32N 51°15' E 004°22'0 0.4
2014-Dec-15 21:29N 51°15' E 004°21'0 0.0
2014-Dec-15 20:32N 51°15' E 004°21'0 0.0
2014-Dec-15 19:32N 51°15' E 004°21'0 0.0
2014-Dec-15 18:29N 51°15' E 004°21'0 0.0
2014-Dec-15 17:32N 51°15' E 004°21'0 0.0
2014-Dec-15 16:32N 51°15' E 004°21'0 0.0
2014-Dec-15 15:32N 51°15' E 004°21'0 0.0
2014-Dec-15 14:29N 51°15' E 004°21'0 0.0
2014-Dec-15 13:32N 51°15' E 004°21'0 0.0
2014-Dec-15 12:32N 51°15' E 004°21'0 0.0
2014-Dec-15 11:32N 51°15' E 004°21'0 0.0
2014-Dec-15 10:32N 51°15' E 004°21'0 0.0
2014-Dec-15 09:32N 51°15' E 004°21'0 0.0
2014-Dec-15 08:32N 51°15' E 004°21'0 0.0
2014-Dec-15 07:32N 51°15' E 004°21'0 0.0
2014-Dec-15 06:32N 51°15' E 004°21'0 0.0
2014-Dec-15 05:32N 51°15' E 004°21'0 0.0
2014-Dec-15 04:32N 51°15' E 004°21'0 0.0
2014-Dec-15 03:32N 51°15' E 004°21'0 0.0
2014-Dec-15 02:23N 51°15' E 004°21'0 0.0
2014-Dec-15 01:32N 51°15' E 004°21'0 0.0
2014-Dec-15 00:32N 51°15' E 004°21'0 0.0
2014-Dec-14 23:32N 51°15' E 004°21'0 0.0
2014-Dec-14 22:29N 51°15' E 004°21'0 0.0
2014-Dec-14 21:32N 51°15' E 004°21'0 0.0
2014-Dec-14 20:32N 51°15' E 004°21'0 0.0
2014-Dec-14 19:32N 51°15' E 004°21'0 0.0
2014-Dec-14 18:29N 51°15' E 004°21'0 0.0
2014-Dec-14 17:23N 51°15' E 004°21'0 0.0
2014-Dec-14 16:32N 51°15' E 004°21'0 0.0
2014-Dec-14 15:32N 51°15' E 004°21'0 0.0
2014-Dec-14 14:26N 51°15' E 004°21'0 0.0
2014-Dec-14 13:32N 51°15' E 004°21'0 0.0
2014-Dec-14 12:32N 51°15' E 004°21'0 0.0
2014-Dec-14 11:32N 51°15' E 004°21'0 0.0
2014-Dec-14 10:33N 51°15' E 004°21'2 2.0
2014-Dec-14 09:34N 51°17' E 004°20'2 2.3
2014-Dec-14 08:33N 51°16' E 004°17'1 1.4
2014-Dec-14 07:33N 51°16' E 004°14'1 0.1
2014-Dec-13 19:29N 51°17' E 004°14'0 0.0
2014-Dec-13 05:33N 51°17' E 004°14'2 2.2
2014-Dec-13 04:34N 51°16' E 004°17'0 0.0
2014-Dec-13 03:34N 51°16' E 004°17'2 2.1
2014-Dec-13 02:34N 51°17' E 004°19'7 7.4
2014-Dec-13 01:33N 51°24' E 004°13'9 9.3
2014-Dec-13 00:33N 51°25' E 003°58'10 9.6
2014-Dec-12 23:34N 51°23' E 003°43'8 7.6
2014-Dec-12 22:33N 51°25' E 003°32'1310.6
2014-Dec-12 21:22N 51°24' E 003°11'1011.0
2014-Dec-12 20:27N 51°22' E 002°55'910.2
2014-Dec-12 19:31N 51°22' E 002°40'4 4.2
2014-Dec-12 18:27N 51°20' E 002°34'0 0.0
2014-Dec-12 17:33N 51°20' E 002°34'1 0.5
2014-Dec-12 16:32N 51°21' E 002°35'9 8.7
2014-Dec-12 15:33N 51°20' E 002°21'1111.5
2014-Dec-12 14:33N 51°21' E 002°03'1212.3
2014-Dec-12 13:33N 51°30' E 001°49'1111.5
2014-Dec-12 12:33N 51°26' E 001°31'6 5.7
2014-Dec-12 11:34N 51°25' E 001°22'0 0.2
2014-Dec-12 10:34N 51°25' E 001°23'0 0.0
2014-Dec-12 09:34N 51°25' E 001°23'0 0.0
2014-Dec-12 08:34N 51°25' E 001°23'0 0.0
2014-Dec-12 07:33N 51°25' E 001°23'0 0.0
2014-Dec-12 06:33N 51°25' E 001°23'0 0.0
2014-Dec-12 05:33N 51°25' E 001°23'0 0.0
2014-Dec-12 04:33N 51°25' E 001°23'0 0.0
2014-Dec-12 03:33N 51°25' E 001°23'7 7.3
2014-Dec-12 02:34N 51°24' E 001°34'1212.4
2014-Dec-12 01:33N 51°11' E 001°37'10 9.7
2014-Dec-12 00:33N 51°02' E 001°34'  

Dump ship's entire track history